Turner, Montana
Current Conditions -  °F | °C
As of 5:53 AM on Saturday 25 Oct 2014 (Local Time) from KHVR Reporting Station
Clear Clear  
Wind Chill: 36°   Ceiling: Unl
Heat Index: 40°   Visibility: 10mi
Dew Point: 32°   Wind: 6mph
Humidity: 73%   Direction: 70°ENE
Pressure: 30.04"   Gusts: NA
Location:  48.84°N, 108.41°W
Report Text: KHVR 251153Z AUTO 07005KT 10SM CLR 04/00 A3004 RMK AO2 SLP181 T00440000 10056 20033 58014
Loading
Personal Weather Stations






























Interactive Weather Map
Tropical Storm Tracking
New forecast layout! Learn more

10-Day Weather Forecast

Advertisements
Track Severe Weather on mobile